Time;durP1;ratioP1;P1;durP2;ratioP2;P2;SDS_P1;SDS_P2;PMS_P1;PMS_P2;Temp;Humidity;BMP_temperature;BMP_pressure;BME280_temperature;BME280_humidity;BME280_pressure;Samples;Min_cycle;Max_cycle;Signal;HPM_P1;HPM_P2
2022/06/29 00:00:21;;;;;;;21.55;7.97;;;;;;;-141.50;100.00;63355.56;5020568;28;20050;-83
2022/06/29 00:02:48;;;;;;;8.30;7.05;;;;;;;-141.50;100.00;63355.56;4996595;28;20086;-83
2022/06/29 00:05:18;;;;;;;10.15;8.05;;;;;;;-141.50;100.00;63355.56;4996786;28;20065;-81
2022/06/29 00:07:45;;;;;;;9.63;8.07;;;;;;;-141.50;100.00;63355.56;4995840;28;20297;-84
2022/06/29 00:10:13;;;;;;;10.32;8.20;;;;;;;-141.50;100.00;63355.56;4993781;28;20122;-81
2022/06/29 00:12:40;;;;;;;10.63;7.78;;;;;;;-141.50;100.00;63355.56;4994768;28;20137;-83
2022/06/29 00:15:08;;;;;;;9.10;7.68;;;;;;;-141.50;100.00;63355.56;4994267;28;20133;-81
2022/06/29 00:17:35;;;;;;;12.68;7.38;;;;;;;-141.50;100.00;63355.56;4993064;28;20529;-82
2022/06/29 00:20:04;;;;;;;10.45;7.70;;;;;;;-141.50;100.00;63355.56;5002082;28;20057;-80
2022/06/29 00:22:31;;;;;;;8.38;6.85;;;;;;;-141.50;100.00;63355.56;5015114;28;20129;-83
2022/06/29 00:24:58;;;;;;;14.40;7.40;;;;;;;-141.50;100.00;63355.56;5013635;28;20426;-83
2022/06/29 00:27:24;;;;;;;8.80;7.47;;;;;;;-141.50;100.00;63355.56;5014546;28;20213;-82
2022/06/29 00:29:51;;;;;;;10.88;7.45;;;;;;;-141.50;100.00;63355.56;5014924;28;20096;-82
2022/06/29 00:32:18;;;;;;;11.30;8.02;;;;;;;-141.50;100.00;63355.56;5014375;28;20057;-83
2022/06/29 00:34:44;;;;;;;11.32;7.78;;;;;;;-141.50;100.00;63355.56;5014194;28;20053;-83
2022/06/29 00:37:11;;;;;;;8.55;7.28;;;;;;;-141.50;100.00;63355.56;5014757;28;20096;-83
2022/06/29 00:39:38;;;;;;;10.68;7.88;;;;;;;-141.50;100.00;63355.56;5014817;28;20565;-82
2022/06/29 00:42:04;;;;;;;10.63;7.80;;;;;;;-141.50;100.00;63355.56;5012650;28;20053;-82
2022/06/29 00:44:31;;;;;;;11.68;7.38;;;;;;;-141.50;100.00;63355.56;5010267;28;20053;-81
2022/06/29 00:47:00;;;;;;;11.38;7.90;;;;;;;-141.50;100.00;63355.56;5011686;28;20080;-82
2022/06/29 00:49:29;;;;;;;11.98;7.43;;;;;;;-141.50;100.00;63355.56;5012418;28;20129;-83
2022/06/29 00:52:13;;;;;;;10.45;7.07;;;;;;;-141.50;100.00;63355.56;5021037;28;20492;-80
2022/06/29 00:54:52;;;;;;;10.18;7.05;;;;;;;-141.50;100.00;63355.56;5020656;28;20046;-83
2022/06/29 00:57:21;;;;;;;10.43;7.28;;;;;;;-141.50;100.00;63355.56;5019005;28;20576;-81
2022/06/29 00:59:51;;;;;;;8.93;7.30;;;;;;;-141.50;100.00;63355.56;5017596;28;20077;-82
2022/06/29 01:02:20;;;;;;;11.90;7.35;;;;;;;-141.50;100.00;63355.56;5017823;28;20060;-83
2022/06/29 01:04:47;;;;;;;10.52;7.05;;;;;;;-141.50;100.00;63355.56;5016286;28;20053;-82
2022/06/29 01:07:19;;;;;;;13.02;7.65;;;;;;;-141.50;100.00;63355.56;5019245;28;20054;-84
2022/06/29 01:09:46;;;;;;;13.38;7.20;;;;;;;-141.50;100.00;63355.56;5014905;28;20053;-83
2022/06/29 01:12:13;;;;;;;10.77;7.40;;;;;;;-141.50;100.00;63355.56;5015193;28;20124;-83
2022/06/29 01:14:45;;;;;;;10.68;7.25;;;;;;;-141.50;100.00;63355.56;5015154;28;20049;-84
2022/06/29 01:17:12;;;;;;;7.38;6.38;;;;;;;-141.50;100.00;63355.56;5013412;28;20487;-83
2022/06/29 01:19:43;;;;;;;8.85;6.95;;;;;;;-141.50;100.00;63355.56;5001959;28;20050;-83
2022/06/29 01:22:11;;;;;;;11.63;7.25;;;;;;;-141.50;100.00;63355.56;5012373;28;20053;-84
2022/06/29 01:24:38;;;;;;;11.95;6.95;;;;;;;-141.50;100.00;63355.56;5014224;28;20050;-83
2022/06/29 01:27:05;;;;;;;8.77;7.13;;;;;;;-141.50;100.00;63355.56;5016157;28;20077;-80
2022/06/29 01:29:33;;;;;;;12.90;7.70;;;;;;;-141.50;100.00;63355.56;5014222;28;20834;-84
2022/06/29 01:31:59;;;;;;;10.43;7.40;;;;;;;-141.50;100.00;63355.56;5012923;28;20046;-82
2022/06/29 01:34:28;;;;;;;16.23;7.50;;;;;;;-141.50;100.00;63355.56;5009228;28;20109;-81
2022/06/29 01:36:54;;;;;;;15.75;7.80;;;;;;;-141.50;100.00;63355.56;5015273;28;20058;-82
2022/06/29 01:39:21;;;;;;;10.80;6.90;;;;;;;-141.50;100.00;63355.56;5016211;28;20085;-82
2022/06/29 01:41:48;;;;;;;9.07;6.43;;;;;;;-141.50;100.00;63355.56;5014300;28;20482;-80
2022/06/29 01:44:14;;;;;;;9.57;6.90;;;;;;;-141.50;100.00;63355.56;5010905;28;20069;-82
2022/06/29 01:46:44;;;;;;;9.70;7.15;;;;;;;-141.50;100.00;63355.56;5011102;28;20126;-82
2022/06/29 01:49:10;;;;;;;11.43;7.50;;;;;;;-141.50;100.00;63355.56;5010952;28;20510;-82
2022/06/29 01:51:37;;;;;;;12.13;7.25;;;;;;;-141.50;100.00;63355.56;5010864;28;20144;-83
2022/06/29 01:54:05;;;;;;;11.13;6.70;;;;;;;-141.50;100.00;63355.56;5015310;28;20054;-82
2022/06/29 01:56:31;;;;;;;9.05;6.85;;;;;;;-141.50;100.00;63355.56;5017440;28;20495;-84
2022/06/29 01:58:58;;;;;;;9.55;6.60;;;;;;;-141.50;100.00;63355.56;5013833;28;20145;-80
2022/06/29 02:01:25;;;;;;;12.57;7.70;;;;;;;-141.50;100.00;63355.56;5011734;28;20050;-82
2022/06/29 02:03:52;;;;;;;10.05;6.75;;;;;;;-141.50;100.00;63355.56;5014148;28;20115;-82
2022/06/29 02:06:19;;;;;;;15.75;6.70;;;;;;;-141.50;100.00;63355.56;5013240;28;20078;-82
2022/06/29 02:08:46;;;;;;;14.90;7.18;;;;;;;-141.50;100.00;63355.56;5012473;28;20502;-81
2022/06/29 02:11:13;;;;;;;12.25;6.72;;;;;;;-141.50;100.00;63355.56;5013844;28;20061;-81
2022/06/29 02:13:40;;;;;;;13.45;7.05;;;;;;;-141.50;100.00;63355.56;5011902;28;20133;-82
2022/06/29 02:16:06;;;;;;;8.98;6.70;;;;;;;-141.50;100.00;63355.56;5013413;28;20176;-82
2022/06/29 02:18:33;;;;;;;17.42;7.05;;;;;;;-141.50;100.00;63355.56;5003402;28;20049;-83
2022/06/29 02:20:59;;;;;;;12.65;6.43;;;;;;;-141.50;100.00;63355.56;5000635;28;20103;-82
2022/06/29 02:23:27;;;;;;;11.50;6.25;;;;;;;-141.50;100.00;63355.56;5012003;28;20078;-81
2022/06/29 02:25:53;;;;;;;7.55;6.15;;;;;;;-141.50;100.00;63355.56;5013565;28;20050;-82
2022/06/29 02:28:20;;;;;;;12.52;6.30;;;;;;;-141.50;100.00;63355.56;5011038;28;20085;-81
2022/06/29 02:36:16;;;;;;;7.20;5.95;;;;;;;-141.50;100.00;63355.56;5012945;28;20081;-81
2022/06/29 02:38:42;;;;;;;9.32;6.32;;;;;;;-141.50;100.00;63355.56;5017652;28;20160;-82
2022/06/29 02:41:09;;;;;;;11.60;6.38;;;;;;;-141.50;100.00;63355.56;5017451;28;20100;-80
2022/06/29 02:43:37;;;;;;;14.60;6.63;;;;;;;-141.50;100.00;63355.56;5017348;28;20085;-82
2022/06/29 02:46:03;;;;;;;9.20;6.30;;;;;;;-141.50;100.00;63355.56;5018391;28;20054;-83
2022/06/29 02:48:32;;;;;;;11.25;5.90;;;;;;;-141.50;100.00;63355.56;5017805;28;20045;-83
2022/06/29 02:51:00;;;;;;;10.02;6.43;;;;;;;-141.50;100.00;63355.56;5022723;28;20240;-81
2022/06/29 02:53:26;;;;;;;8.77;6.35;;;;;;;-141.50;100.00;63355.56;5029114;28;20124;-82
2022/06/29 02:55:54;;;;;;;8.07;5.72;;;;;;;-141.50;100.00;63355.56;5019676;28;20053;-82
2022/06/29 02:58:23;;;;;;;7.55;6.00;;;;;;;-141.50;100.00;63355.56;5021668;28;20046;-81
2022/06/29 03:00:49;;;;;;;9.25;6.03;;;;;;;-141.50;100.00;63355.56;5018735;28;20065;-81
2022/06/29 03:03:16;;;;;;;8.65;6.22;;;;;;;-141.50;100.00;63355.56;5020627;28;20133;-81
2022/06/29 03:05:47;;;;;;;9.93;6.35;;;;;;;-141.50;100.00;63355.56;5021539;28;20090;-81
2022/06/29 03:08:13;;;;;;;8.95;6.20;;;;;;;-141.50;100.00;63355.56;5019704;28;20080;-82
2022/06/29 03:10:40;;;;;;;7.00;6.15;;;;;;;-141.50;100.00;63355.56;5018508;28;20054;-81
2022/06/29 03:13:07;;;;;;;8.93;6.47;;;;;;;-141.50;100.00;63355.56;5025380;28;20049;-80
2022/06/29 03:15:33;;;;;;;8.25;6.15;;;;;;;-141.50;100.00;63355.56;5030169;28;20060;-82
2022/06/29 03:18:00;;;;;;;8.35;6.50;;;;;;;-141.50;100.00;63355.56;5026457;28;20057;-81
2022/06/29 03:20:27;;;;;;;8.68;6.03;;;;;;;-141.50;100.00;63355.56;5008092;28;20144;-80
2022/06/29 03:22:54;;;;;;;8.73;6.05;;;;;;;-141.50;100.00;63355.56;5016467;28;20046;-81
2022/06/29 03:25:20;;;;;;;8.07;6.07;;;;;;;-141.50;100.00;63355.56;5016629;28;20050;-82
2022/06/29 03:27:47;;;;;;;8.85;5.85;;;;;;;-141.50;100.00;63355.56;5016822;28;20049;-80
2022/06/29 03:30:14;;;;;;;8.48;6.80;;;;;;;-141.50;100.00;63355.56;5016424;28;20164;-80
2022/06/29 03:32:40;;;;;;;7.57;6.25;;;;;;;-141.50;100.00;63355.56;5016717;28;20534;-81
2022/06/29 03:35:07;;;;;;;11.55;6.30;;;;;;;-141.50;100.00;63355.56;5017852;28;20085;-81
2022/06/29 03:37:34;;;;;;;9.15;6.68;;;;;;;-141.50;100.00;63355.56;5017657;28;20113;-82
2022/06/29 03:40:01;;;;;;;10.07;6.60;;;;;;;-141.50;100.00;63355.56;5017281;28;20077;-82
2022/06/29 03:42:28;;;;;;;11.40;6.43;;;;;;;-141.50;100.00;63355.56;5010689;28;20499;-82
2022/06/29 03:44:55;;;;;;;10.13;6.70;;;;;;;-141.50;100.00;63355.56;5006633;28;20157;-82
2022/06/29 03:47:22;;;;;;;9.98;6.80;;;;;;;-141.50;100.00;63355.56;5013067;28;20056;-80
2022/06/29 03:49:49;;;;;;;11.80;6.88;;;;;;;-141.50;100.00;63355.56;5005850;28;20042;-81
2022/06/29 03:52:16;;;;;;;8.05;6.50;;;;;;;-141.50;100.00;63355.56;4995514;28;20491;-84
2022/06/29 03:54:43;;;;;;;8.95;6.85;;;;;;;-141.50;100.00;63355.56;5008879;28;20046;-82
2022/06/29 03:57:09;;;;;;;8.75;6.60;;;;;;;-141.50;100.00;63355.56;5013780;28;20085;-80
2022/06/29 03:59:36;;;;;;;11.65;6.43;;;;;;;-141.50;100.00;63355.56;5015317;28;20046;-79
2022/06/29 04:02:03;;;;;;;8.15;6.68;;;;;;;-141.50;100.00;63355.56;5015506;28;20038;-78
2022/06/29 04:04:30;;;;;;;9.88;7.25;;;;;;;-141.50;100.00;63355.56;5002497;28;20052;-82
2022/06/29 04:06:56;;;;;;;12.65;7.63;;;;;;;-141.50;100.00;63355.56;4997052;28;20046;-83
2022/06/29 04:09:23;;;;;;;11.45;7.30;;;;;;;-141.50;100.00;63355.56;5015727;28;20125;-83
2022/06/29 04:11:49;;;;;;;12.10;7.30;;;;;;;-141.50;100.00;63355.56;5016833;28;20049;-84
2022/06/29 04:14:17;;;;;;;11.27;8.25;;;;;;;-141.50;100.00;63355.56;5017166;28;20551;-83
2022/06/29 04:16:43;;;;;;;10.45;7.82;;;;;;;-141.50;100.00;63355.56;5014450;28;20169;-83
2022/06/29 04:19:10;;;;;;;9.35;8.35;;;;;;;-141.50;100.00;63355.56;5013560;28;20101;-76
2022/06/29 04:21:38;;;;;;;9.30;7.60;;;;;;;-141.50;100.00;63355.56;4990641;28;20100;-77
2022/06/29 04:24:05;;;;;;;10.35;8.20;;;;;;;-141.50;100.00;63355.56;4990699;28;20101;-76
2022/06/29 04:26:33;;;;;;;8.85;7.70;;;;;;;-141.50;100.00;63355.56;4992367;28;20455;-77
2022/06/29 04:29:03;;;;;;;11.73;7.72;;;;;;;-141.50;100.00;63355.56;4990562;28;20534;-77
2022/06/29 04:31:30;;;;;;;11.40;8.13;;;;;;;-141.50;100.00;63355.56;5000603;28;20045;-77
2022/06/29 04:33:56;;;;;;;12.20;7.95;;;;;;;-141.50;100.00;63355.56;5001467;28;20558;-77
2022/06/29 04:36:23;;;;;;;12.95;8.50;;;;;;;-141.50;100.00;63355.56;4996101;28;20427;-75
2022/06/29 04:38:49;;;;;;;11.52;7.90;;;;;;;-141.50;100.00;63355.56;5008160;28;20116;-77
2022/06/29 04:41:16;;;;;;;11.35;8.23;;;;;;;-141.50;100.00;63355.56;5017623;28;20076;-77
2022/06/29 04:43:42;;;;;;;11.77;8.57;;;;;;;-141.50;100.00;63355.56;5016412;28;20053;-77
2022/06/29 04:46:21;;;;;;;10.63;8.40;;;;;;;-141.50;100.00;63355.56;5013333;28;20483;-77
2022/06/29 04:48:58;;;;;;;10.57;8.32;;;;;;;-141.50;100.00;63355.56;5009491;28;20086;-75
2022/06/29 04:51:26;;;;;;;11.20;8.85;;;;;;;-141.50;100.00;63355.56;4997989;28;20129;-77
2022/06/29 04:53:55;;;;;;;12.85;8.82;;;;;;;-141.50;100.00;63355.56;4995177;28;20049;-77
2022/06/29 04:56:24;;;;;;;12.07;7.93;;;;;;;-141.50;100.00;63355.56;4997523;28;20134;-76
2022/06/29 04:58:53;;;;;;;12.57;8.85;;;;;;;-141.50;100.00;63355.56;4998344;28;20241;-79
2022/06/29 05:01:24;;;;;;;14.27;9.20;;;;;;;-141.50;100.00;63355.56;4997366;28;20069;-76
2022/06/29 05:03:53;;;;;;;12.27;9.43;;;;;;;-141.50;100.00;63355.56;4997756;28;20080;-84
2022/06/29 05:06:22;;;;;;;10.68;8.15;;;;;;;-141.50;100.00;63355.56;5007973;28;20408;-83
2022/06/29 05:08:50;;;;;;;10.13;7.10;;;;;;;-141.50;100.00;63355.56;5016550;28;20691;-84
2022/06/29 05:11:18;;;;;;;11.27;7.53;;;;;;;-141.50;100.00;63355.56;5015590;28;20053;-84
2022/06/29 05:13:45;;;;;;;10.55;7.43;;;;;;;-141.50;100.00;63355.56;4995348;28;20090;-83
2022/06/29 05:16:12;;;;;;;10.20;7.45;;;;;;;-141.50;100.00;63355.56;4995026;28;20098;-84
2022/06/29 05:18:39;;;;;;;11.27;6.78;;;;;;;-141.50;100.00;63355.56;5008707;28;20100;-80
2022/06/29 05:21:06;;;;;;;9.70;7.35;;;;;;;-141.50;100.00;63355.56;5008575;28;20084;-84
2022/06/29 05:23:36;;;;;;;12.77;7.00;;;;;;;-141.50;100.00;63355.56;5017341;28;20084;-84
2022/06/29 05:26:03;;;;;;;7.93;6.90;;;;;;;-141.50;100.00;63355.56;5016771;28;20054;-84
2022/06/29 05:28:29;;;;;;;8.13;6.82;;;;;;;-141.50;100.00;63355.56;5016240;28;20191;-84
2022/06/29 05:30:56;;;;;;;9.15;7.07;;;;;;;-141.50;100.00;63355.56;5017167;28;20077;-84
2022/06/29 05:33:22;;;;;;;11.45;6.80;;;;;;;-141.50;100.00;63355.56;5011802;28;20050;-82
2022/06/29 05:35:49;;;;;;;8.45;6.70;;;;;;;-141.50;100.00;63355.56;5019929;28;20471;-81
2022/06/29 05:38:15;;;;;;;8.88;6.57;;;;;;;-141.50;100.00;63355.56;5022198;28;20057;-82
2022/06/29 05:40:43;;;;;;;8.63;7.38;;;;;;;-141.50;100.00;63355.56;5018084;28;20081;-82
2022/06/29 05:43:10;;;;;;;8.63;6.85;;;;;;;-141.50;100.00;63355.56;5021296;28;20105;-82
2022/06/29 05:45:37;;;;;;;10.15;7.95;;;;;;;-141.50;100.00;63355.56;5017890;28;20482;-79
2022/06/29 05:48:04;;;;;;;9.00;6.63;;;;;;;-141.50;100.00;63355.56;5018061;28;20581;-82
2022/06/29 05:50:30;;;;;;;9.88;6.93;;;;;;;-141.50;100.00;63355.56;5019753;28;20562;-80
2022/06/29 05:52:57;;;;;;;8.68;7.03;;;;;;;-141.50;100.00;63355.56;5017771;28;20088;-85
2022/06/29 05:55:23;;;;;;;10.25;7.25;;;;;;;-141.50;100.00;63355.56;5015046;28;20569;-82
2022/06/29 05:57:50;;;;;;;13.00;7.88;;;;;;;-141.50;100.00;63355.56;5016326;28;20078;-84
2022/06/29 06:00:16;;;;;;;9.73;8.32;;;;;;;-141.50;100.00;63355.56;5015713;28;20081;-83
2022/06/29 06:02:50;;;;;;;10.65;7.53;;;;;;;-141.50;100.00;63355.56;5016236;28;20370;-83
2022/06/29 06:05:16;;;;;;;12.05;8.15;;;;;;;-141.50;100.00;63355.56;5013978;28;20077;-81
2022/06/29 06:07:43;;;;;;;12.40;8.07;;;;;;;-141.50;100.00;63355.56;5015794;28;20080;-82
2022/06/29 06:10:10;;;;;;;11.70;7.97;;;;;;;-141.50;100.00;63355.56;5023554;28;20112;-82
2022/06/29 06:12:37;;;;;;;11.27;8.25;;;;;;;-141.50;100.00;63355.56;5017956;28;20108;-83
2022/06/29 06:15:04;;;;;;;12.93;8.48;;;;;;;-141.50;100.00;63355.56;5018190;28;20121;-83
2022/06/29 06:17:33;;;;;;;11.27;8.90;;;;;;;-141.50;100.00;63355.56;5010632;28;20078;-85
2022/06/29 06:20:01;;;;;;;10.30;7.75;;;;;;;-141.50;100.00;63355.56;5004357;28;20371;-85
2022/06/29 06:22:28;;;;;;;10.27;8.00;;;;;;;-141.50;100.00;63355.56;5008900;28;20176;-82
2022/06/29 06:24:55;;;;;;;11.80;8.73;;;;;;;-141.50;100.00;63355.56;4990123;28;20055;-84
2022/06/29 06:27:21;;;;;;;13.50;8.77;;;;;;;-141.50;100.00;63355.56;5004970;28;20084;-81
2022/06/29 06:29:48;;;;;;;10.38;8.68;;;;;;;-141.50;100.00;63355.56;4990172;28;20574;-81
2022/06/29 06:32:15;;;;;;;10.20;8.73;;;;;;;-141.50;100.00;63355.56;4990087;28;20082;-84
2022/06/29 06:34:41;;;;;;;9.73;8.73;;;;;;;-141.50;100.00;63355.56;4990851;28;20727;-81
2022/06/29 06:37:08;;;;;;;10.02;8.90;;;;;;;-141.50;100.00;63355.56;4991246;28;20494;-83
2022/06/29 06:39:34;;;;;;;12.80;9.07;;;;;;;-141.50;100.00;63355.56;4990144;28;20081;-79
2022/06/29 06:42:02;;;;;;;12.40;8.93;;;;;;;-141.50;100.00;63355.56;4992003;28;20157;-82
2022/06/29 06:44:29;;;;;;;11.43;9.02;;;;;;;-141.50;100.00;63355.56;4995422;28;20050;-84
2022/06/29 06:46:59;;;;;;;10.85;9.35;;;;;;;-141.50;100.00;63355.56;4995466;28;20058;-82
2022/06/29 06:49:27;;;;;;;13.35;9.00;;;;;;;-141.50;100.00;63355.56;4995364;28;20050;-82
2022/06/29 06:51:53;;;;;;;11.90;8.95;;;;;;;-141.50;100.00;63355.56;4994557;28;20073;-84
2022/06/29 06:54:20;;;;;;;18.90;9.15;;;;;;;-141.50;100.00;63355.56;4996135;28;20439;-79
2022/06/29 06:56:49;;;;;;;11.82;10.13;;;;;;;-141.50;100.00;63355.56;4996275;28;20066;-81
2022/06/29 06:59:15;;;;;;;12.40;9.80;;;;;;;-141.50;100.00;63355.56;4995720;28;20197;-82
2022/06/29 07:01:42;;;;;;;12.45;10.07;;;;;;;-141.50;100.00;63355.56;4997301;28;20063;-83
2022/06/29 07:04:15;;;;;;;12.38;9.80;;;;;;;-141.50;100.00;63355.56;4996405;28;20081;-83
2022/06/29 07:06:42;;;;;;;13.00;10.35;;;;;;;-141.50;100.00;63355.56;5010738;28;20112;-82
2022/06/29 07:09:12;;;;;;;17.50;10.45;;;;;;;-141.50;100.00;63355.56;4995907;28;20050;-81
2022/06/29 07:11:38;;;;;;;15.30;10.50;;;;;;;-141.50;100.00;63355.56;4988024;28;20113;-82
2022/06/29 07:14:05;;;;;;;18.38;11.13;;;;;;;-141.50;100.00;63355.56;4990082;28;20108;-80
2022/06/29 07:16:31;;;;;;;13.77;10.73;;;;;;;-141.50;100.00;63355.56;5004242;28;20128;-78
2022/06/29 07:18:58;;;;;;;15.20;10.93;;;;;;;-141.50;100.00;63355.56;4996837;28;20593;-82
2022/06/29 07:21:24;;;;;;;15.70;11.25;;;;;;;-141.50;100.00;63355.56;5010458;28;20096;-82
2022/06/29 07:23:51;;;;;;;16.67;11.57;;;;;;;-141.50;100.00;63355.56;5012555;28;20046;-82
2022/06/29 07:26:18;;;;;;;16.13;11.90;;;;;;;-141.50;100.00;63355.56;5012763;28;20116;-82
2022/06/29 07:28:44;;;;;;;14.13;10.60;;;;;;;-141.50;100.00;63355.56;5014283;28;20093;-81
2022/06/29 07:31:10;;;;;;;14.32;11.65;;;;;;;-141.50;100.00;63355.56;5027543;28;20050;-79
2022/06/29 07:33:37;;;;;;;13.48;11.90;;;;;;;-141.50;100.00;63355.56;5018590;28;20046;-83
2022/06/29 07:36:04;;;;;;;16.40;11.70;;;;;;;-141.50;100.00;63355.56;5011930;28;20054;-83
2022/06/29 07:38:31;;;;;;;16.63;12.27;;;;;;;-141.50;100.00;63355.56;5012474;28;20058;-81
2022/06/29 07:40:58;;;;;;;15.38;11.95;;;;;;;-141.50;100.00;63355.56;5012388;28;20088;-81
2022/06/29 07:43:25;;;;;;;15.30;11.90;;;;;;;-141.50;100.00;63355.56;5014495;28;20057;-81
2022/06/29 07:45:52;;;;;;;19.70;12.20;;;;;;;-141.50;100.00;63355.56;5013636;28;20081;-81
2022/06/29 07:48:19;;;;;;;15.27;11.80;;;;;;;-141.50;100.00;63355.56;5014540;28;20284;-82
2022/06/29 07:50:45;;;;;;;13.55;11.75;;;;;;;-141.50;100.00;63355.56;5012774;28;20054;-85
2022/06/29 07:53:12;;;;;;;15.32;12.52;;;;;;;-141.50;100.00;63355.56;5018401;28;20128;-83
2022/06/29 07:55:39;;;;;;;14.75;11.93;;;;;;;-141.50;100.00;63355.56;5020116;28;20439;-83
2022/06/29 07:58:06;;;;;;;16.85;12.48;;;;;;;-141.50;100.00;63355.56;5012804;28;20081;-83
2022/06/29 08:00:33;;;;;;;15.00;12.25;;;;;;;-141.50;100.00;63355.56;5011781;28;20124;-80
2022/06/29 08:03:00;;;;;;;20.48;13.50;;;;;;;-141.50;100.00;63355.56;5013194;28;20137;-82
2022/06/29 08:05:28;;;;;;;16.80;13.48;;;;;;;-141.50;100.00;63355.56;5013991;28;20053;-80
2022/06/29 08:07:55;;;;;;;14.73;11.85;;;;;;;-141.50;100.00;63355.56;5014867;28;20085;-82
2022/06/29 08:10:22;;;;;;;14.93;11.90;;;;;;;-141.50;100.00;63355.56;5014706;28;20081;-82
2022/06/29 08:12:48;;;;;;;17.70;13.55;;;;;;;-141.50;100.00;63355.56;5015147;28;20075;-82
2022/06/29 08:15:17;;;;;;;16.65;12.50;;;;;;;-141.50;100.00;63355.56;5017754;28;20093;-86
2022/06/29 08:17:44;;;;;;;18.27;13.40;;;;;;;-141.50;100.00;63355.56;5017013;28;20046;-82
2022/06/29 08:20:13;;;;;;;17.17;13.85;;;;;;;-141.50;100.00;63355.56;5007509;28;20418;-81
2022/06/29 08:22:40;;;;;;;17.33;13.40;;;;;;;-141.50;100.00;63355.56;4999764;28;20061;-82
2022/06/29 08:25:07;;;;;;;19.65;13.25;;;;;;;-141.50;100.00;63355.56;5000332;28;20182;-84
2022/06/29 08:27:34;;;;;;;19.30;13.52;;;;;;;-141.50;100.00;63355.56;4997801;28;20046;-82
2022/06/29 08:30:13;;;;;;;17.00;13.80;;;;;;;-141.50;100.00;63355.56;5000048;28;20050;-84
2022/06/29 08:32:41;;;;;;;19.75;14.88;;;;;;;-141.50;100.00;63355.56;4998144;28;20056;-82
2022/06/29 08:35:09;;;;;;;20.85;15.20;;;;;;;-141.50;100.00;63355.56;4999406;28;20054;-83
2022/06/29 08:37:37;;;;;;;19.55;15.35;;;;;;;-141.50;100.00;63355.56;5003188;28;20046;-82
2022/06/29 08:40:09;;;;;;;21.05;15.93;;;;;;;-141.50;100.00;63355.56;5002974;28;20130;-81
2022/06/29 08:42:37;;;;;;;20.67;15.40;;;;;;;-141.50;100.00;63355.56;5011951;28;20058;-82
2022/06/29 08:45:05;;;;;;;19.40;15.80;;;;;;;-141.50;100.00;63355.56;4996031;28;20104;-82
2022/06/29 08:47:32;;;;;;;19.73;15.52;;;;;;;-141.50;100.00;63355.56;4975526;28;20582;-82
2022/06/29 08:50:02;;;;;;;19.95;15.85;;;;;;;-141.50;100.00;63355.56;4995202;28;20129;-82
2022/06/29 08:52:29;;;;;;;23.48;15.60;;;;;;;-141.50;100.00;63355.56;4996495;28;20101;-82
2022/06/29 08:54:57;;;;;;;22.92;16.50;;;;;;;-141.50;100.00;63355.56;4995782;28;20046;-83
2022/06/29 08:57:25;;;;;;;19.23;14.98;;;;;;;-141.50;100.00;63355.56;4994657;28;20055;-83
2022/06/29 08:59:53;;;;;;;16.25;13.95;;;;;;;-141.50;100.00;63355.56;4994831;28;20061;-82
2022/06/29 09:02:29;;;;;;;20.15;15.15;;;;;;;-141.50;100.00;63355.56;4996575;28;20050;-85
2022/06/29 09:04:56;;;;;;;19.55;15.20;;;;;;;-141.50;100.00;63355.56;4996670;28;20061;-82
2022/06/29 09:07:24;;;;;;;19.90;15.30;;;;;;;-141.50;100.00;63355.56;4997616;28;20058;-83
2022/06/29 09:10:00;;;;;;;19.30;14.60;;;;;;;-141.50;100.00;63355.56;5000040;28;20084;-84
2022/06/29 09:12:28;;;;;;;22.98;15.40;;;;;;;-141.50;100.00;63355.56;5015928;28;20057;-83
2022/06/29 09:14:55;;;;;;;17.60;13.65;;;;;;;-141.50;100.00;63355.56;5016700;28;20049;-80
2022/06/29 09:17:22;;;;;;;19.70;13.93;;;;;;;-141.50;100.00;63355.56;5008545;28;20561;-81
2022/06/29 09:19:49;;;;;;;18.98;14.38;;;;;;;-141.50;100.00;63355.56;5003767;28;20133;-82
2022/06/29 09:22:24;;;;;;;20.38;15.15;;;;;;;-141.50;100.00;63355.56;4993540;28;20114;-81
2022/06/29 09:24:51;;;;;;;20.55;15.88;;;;;;;-141.50;100.00;63355.56;4995057;28;20112;-83
2022/06/29 09:27:38;;;;;;;20.75;15.68;;;;;;;-141.50;100.00;63355.56;4996606;28;20072;-82
2022/06/29 09:30:05;;;;;;;22.20;16.42;;;;;;;-141.50;100.00;63355.56;4994896;28;20038;-80
2022/06/29 09:32:31;;;;;;;21.98;16.60;;;;;;;-141.50;100.00;63355.56;4994843;28;20133;-83
2022/06/29 09:34:58;;;;;;;23.67;15.70;;;;;;;-141.50;100.00;63355.56;4990881;28;20100;-84
2022/06/29 09:37:25;;;;;;;25.13;17.17;;;;;;;-141.50;100.00;63355.56;4991034;28;20093;-81
2022/06/29 09:39:53;;;;;;;21.58;16.30;;;;;;;-141.50;100.00;63355.56;4992954;28;20112;-83
2022/06/29 09:42:25;;;;;;;21.20;15.55;;;;;;;-141.50;100.00;63355.56;4995570;28;20085;-83
2022/06/29 09:44:53;;;;;;;27.13;16.38;;;;;;;-141.50;100.00;63355.56;4996475;28;20138;-81
2022/06/29 09:47:21;;;;;;;22.55;16.27;;;;;;;-141.50;100.00;63355.56;5001692;28;20097;-83
2022/06/29 09:49:52;;;;;;;24.85;15.95;;;;;;;-141.50;100.00;63355.56;5003978;28;20054;-81
2022/06/29 09:52:19;;;;;;;23.50;16.38;;;;;;;-141.50;100.00;63355.56;5011020;28;20061;-82
2022/06/29 09:54:52;;;;;;;22.02;16.73;;;;;;;-141.50;100.00;63355.56;5007302;28;20057;-84
2022/06/29 09:57:20;;;;;;;22.27;16.50;;;;;;;-141.50;100.00;63355.56;4999984;28;20073;-82
2022/06/29 10:02:43;;;;;;;27.48;15.48;;;;;;;-141.50;100.00;63355.56;4994929;28;20054;-83
2022/06/29 10:05:17;;;;;;;22.15;15.73;;;;;;;-141.50;100.00;63355.56;4994330;28;20062;-83
2022/06/29 10:07:48;;;;;;;22.67;16.50;;;;;;;-141.50;100.00;63355.56;4992511;28;20086;-83
2022/06/29 10:10:16;;;;;;;22.67;17.25;;;;;;;-141.50;100.00;63355.56;4994080;28;20535;-83
2022/06/29 10:16:08;;;;;;;20.25;15.35;;;;;;;-141.50;100.00;63355.56;4998636;28;20124;-82
2022/06/29 10:18:53;;;;;;;21.95;15.10;;;;;;;-141.50;100.00;63355.56;5002669;28;20045;-82
2022/06/29 10:21:25;;;;;;;18.95;15.57;;;;;;;-141.50;100.00;63355.56;5002550;28;20490;-83
2022/06/29 10:23:54;;;;;;;20.00;14.77;;;;;;;-141.50;100.00;63355.56;5010384;28;20716;-81
2022/06/29 10:26:34;;;;;;;20.30;14.45;;;;;;;-141.50;100.00;63355.56;5010596;28;20162;-82
2022/06/29 10:29:10;;;;;;;22.35;14.65;;;;;;;-141.50;100.00;63355.56;5011152;28;20046;-80
2022/06/29 10:31:52;;;;;;;15.52;13.40;;;;;;;-141.50;100.00;63355.56;5010919;28;20104;-81
2022/06/29 10:34:31;;;;;;;16.80;13.38;;;;;;;-141.50;100.00;63355.56;5012034;28;20076;-81
2022/06/29 10:37:01;;;;;;;19.85;14.32;;;;;;;-141.50;100.00;63355.56;5013576;28;20057;-83
2022/06/29 10:39:48;;;;;;;16.02;12.98;;;;;;;-141.50;100.00;63355.56;5013238;28;20093;-82
2022/06/29 10:45:18;;;;;;;16.40;13.38;;;;;;;-141.50;100.00;63355.56;5016506;28;20534;-83
2022/06/29 10:48:01;;;;;;;16.52;12.23;;;;;;;-141.50;100.00;63355.56;5014318;28;20146;-83
2022/06/29 10:50:29;;;;;;;17.50;11.85;;;;;;;-141.50;100.00;63355.56;5015533;28;20077;-81
2022/06/29 10:53:02;;;;;;;16.35;13.32;;;;;;;-141.50;100.00;63355.56;5016249;28;20459;-82
2022/06/29 10:55:29;;;;;;;17.02;13.23;;;;;;;-141.50;100.00;63355.56;5014878;28;20181;-81
2022/06/29 10:57:57;;;;;;;16.30;13.05;;;;;;;-141.50;100.00;63355.56;5018049;28;20138;-84
2022/06/29 11:00:44;;;;;;;17.60;13.05;;;;;;;-141.50;100.00;63355.56;5019081;28;20061;-81
2022/06/29 11:03:19;;;;;;;18.52;13.02;;;;;;;-141.50;100.00;63355.56;5020359;28;20100;-83
2022/06/29 11:15:39;;;;;;;16.77;12.00;;;;;;;-141.50;100.00;63355.56;5025864;28;20112;-82
2022/06/29 11:16:57;;;;;;;14.75;11.63;;;;;;;-141.50;100.00;63355.56;5022200;28;20056;-82
2022/06/29 11:19:33;;;;;;;15.18;11.00;;;;;;;-141.50;100.00;63355.56;5006823;28;20157;-83
2022/06/29 11:22:09;;;;;;;15.93;11.35;;;;;;;-141.50;100.00;63355.56;4999922;28;20070;-83
2022/06/29 11:24:57;;;;;;;14.88;11.88;;;;;;;-141.50;100.00;63355.56;4995986;28;20511;-83
2022/06/29 11:27:38;;;;;;;15.27;12.07;;;;;;;-141.50;100.00;63355.56;4998164;28;20086;-81